createdAt,value
2017-07-12T11:15:09.965Z,25.03
2017-07-12T11:16:09.016Z,25.01
2017-07-12T11:17:09.358Z,25.07
2017-07-12T11:18:09.383Z,25.11
2017-07-12T11:19:09.027Z,25.14
2017-07-12T11:20:11.289Z,25.08
2017-07-12T11:21:14.491Z,25.08
2017-07-12T11:22:11.233Z,25.08
2017-07-12T11:23:09.044Z,25.07
2017-07-12T11:24:09.375Z,25.13
2017-07-12T11:25:09.392Z,25.18
2017-07-12T11:26:08.900Z,25.29
2017-07-12T11:27:09.081Z,25.29
2017-07-12T11:28:09.083Z,25.41
2017-07-12T11:29:09.516Z,25.28
2017-07-12T11:30:09.611Z,25.23
2017-07-12T11:31:09.077Z,25.25
2017-07-12T11:32:09.083Z,25.35
2017-07-12T11:33:08.749Z,25.28
2017-07-12T11:34:09.222Z,25.36
2017-07-12T11:35:11.639Z,25.35
2017-07-12T11:36:09.203Z,25.31
2017-07-12T11:37:09.447Z,25.4
2017-07-12T11:38:08.810Z,25.33
2017-07-12T11:39:08.788Z,25.32
2017-07-12T11:40:12.011Z,25.26
2017-07-12T11:41:09.602Z,25.29
2017-07-12T11:42:09.471Z,25.22
2017-07-12T11:43:09.475Z,25.22
2017-07-12T11:44:09.419Z,25.13
2017-07-12T11:45:13.068Z,25.14
2017-07-12T11:46:11.072Z,25.14
2017-07-12T11:47:09.311Z,25.03
2017-07-12T11:48:09.514Z,24.91
2017-07-12T11:49:08.855Z,24.84
2017-07-12T11:50:12.916Z,24.86
2017-07-12T11:51:08.856Z,24.78
2017-07-12T11:52:09.473Z,24.73
2017-07-12T11:53:09.524Z,24.6
2017-07-12T11:54:09.010Z,24.57
2017-07-12T11:55:11.289Z,24.47
2017-07-12T11:56:08.877Z,24.47
2017-07-12T11:57:08.883Z,24.43
2017-07-12T11:58:09.233Z,24.54
2017-07-12T11:59:08.899Z,24.47
2017-07-12T12:00:10.177Z,24.54
2017-07-12T12:01:10.651Z,24.6
2017-07-12T12:02:09.268Z,24.68
2017-07-12T12:03:09.270Z,24.74
2017-07-12T12:04:09.596Z,24.84
2017-07-12T12:05:11.310Z,24.8
2017-07-12T12:06:09.259Z,24.89
2017-07-12T12:07:09.266Z,24.8
2017-07-12T12:08:12.853Z,24.81
2017-07-12T12:09:12.244Z,24.69
2017-07-12T12:10:15.227Z,24.58
2017-07-12T12:11:13.872Z,24.51
2017-07-12T12:12:10.575Z,24.43
2017-07-12T12:13:14.260Z,24.42
2017-07-12T12:14:15.752Z,24.45
2017-07-12T12:15:14.608Z,24.26
2017-07-12T12:16:20.016Z,24.29
2017-07-12T12:17:12.631Z,24.29
2017-07-12T12:18:13.668Z,24.23
2017-07-12T12:19:12.875Z,24.16
2017-07-12T12:20:13.532Z,24.01
2017-07-12T12:21:17.363Z,23.96
2017-07-12T12:22:12.899Z,23.96
2017-07-12T12:23:11.824Z,23.92
2017-07-12T12:24:12.560Z,23.96
2017-07-12T12:25:13.195Z,23.96
2017-07-12T12:26:15.375Z,23.91
2017-07-12T12:27:14.370Z,23.76
2017-07-12T12:28:10.247Z,23.76
2017-07-12T12:29:09.987Z,23.78
2017-07-12T12:30:12.683Z,23.77
2017-07-12T12:31:09.785Z,23.69
2017-07-12T12:32:11.751Z,23.71
2017-07-12T12:33:09.090Z,23.65
2017-07-12T12:34:09.955Z,23.65
2017-07-12T12:35:11.810Z,23.63
2017-07-12T12:36:09.853Z,23.63
2017-07-12T12:37:09.441Z,23.63
2017-07-12T12:38:09.422Z,23.66
2017-07-12T12:39:09.774Z,23.58
2017-07-12T12:40:10.912Z,23.58
2017-07-12T12:41:09.472Z,23.56
2017-07-12T12:42:09.446Z,23.56
2017-07-12T12:43:09.500Z,23.59
2017-07-12T12:44:09.473Z,23.56
2017-07-12T12:45:11.231Z,23.59
2017-07-12T12:46:09.221Z,23.58
2017-07-12T12:47:13.213Z,23.58
2017-07-12T12:48:09.897Z,23.47
2017-07-12T12:49:09.494Z,23.44
2017-07-12T12:50:11.395Z,23.37
2017-07-12T12:51:11.529Z,23.4
2017-07-12T12:52:09.262Z,23.36
2017-07-12T12:53:09.162Z,23.28
2017-07-12T12:54:09.495Z,23.36
2017-07-12T12:55:10.341Z,23.32
2017-07-12T12:56:09.513Z,23.2
2017-07-12T12:57:10.417Z,23.12
2017-07-12T12:58:09.537Z,23.1
2017-07-12T12:59:09.553Z,22.9
2017-07-12T13:00:11.153Z,22.7
2017-07-12T13:01:09.873Z,22.41
2017-07-12T13:02:09.670Z,22.23
2017-07-12T13:03:09.664Z,22.14
2017-07-12T13:04:09.880Z,22
2017-07-12T13:05:10.631Z,22.06
2017-07-12T13:06:09.230Z,22.07
2017-07-12T13:07:09.562Z,22.22
2017-07-12T13:08:09.242Z,22.32
2017-07-12T13:09:09.592Z,22.44
2017-07-12T13:10:10.746Z,22.47
2017-07-12T13:11:09.590Z,22.55
2017-07-12T13:12:09.262Z,22.63
2017-07-12T13:13:09.599Z,22.73
2017-07-12T13:14:09.287Z,22.76
2017-07-12T13:15:09.742Z,22.93
2017-07-12T13:16:14.399Z,22.96
2017-07-12T13:17:09.945Z,23.2
2017-07-12T13:18:12.365Z,23.27
2017-07-12T13:19:09.953Z,23.39
2017-07-12T13:20:11.119Z,23.43
2017-07-12T13:21:09.302Z,23.66
2017-07-12T13:22:09.659Z,23.62
2017-07-12T13:23:09.630Z,23.76
2017-07-12T13:24:09.414Z,23.69
2017-07-12T13:25:12.313Z,23.8
2017-07-12T13:26:09.312Z,23.77
2017-07-12T13:27:09.679Z,23.84
2017-07-12T13:28:10.218Z,23.92
2017-07-12T13:29:09.733Z,23.92
2017-07-12T13:30:10.839Z,23.76
2017-07-12T13:31:15.810Z,23.87
2017-07-12T13:32:09.703Z,23.93
2017-07-12T13:33:11.890Z,23.95
2017-07-12T13:35:10.850Z,23.92
2017-07-12T13:36:10.164Z,23.99
2017-07-12T13:37:10.087Z,23.86
2017-07-12T13:38:10.398Z,23.83
2017-07-12T13:39:09.418Z,23.74
2017-07-12T13:40:11.634Z,23.69
2017-07-12T13:41:12.739Z,23.71
2017-07-12T13:42:09.412Z,23.63
2017-07-12T13:43:10.085Z,23.51
2017-07-12T13:44:09.750Z,23.46
2017-07-12T13:45:12.146Z,23.44
2017-07-12T13:46:10.105Z,23.34
2017-07-12T13:47:09.789Z,23.15
2017-07-12T13:48:10.059Z,23.23
2017-07-12T13:49:09.777Z,23.17
2017-07-12T13:50:10.743Z,23.21
2017-07-12T13:51:12.480Z,23.15
2017-07-12T13:52:09.455Z,23.08
2017-07-12T13:53:10.124Z,23.2
2017-07-12T13:54:09.857Z,23.13
2017-07-12T13:55:11.256Z,23.15
2017-07-12T13:56:09.802Z,22.9
2017-07-12T13:57:09.474Z,22.78
2017-07-12T13:58:10.265Z,22.68
2017-07-12T13:59:10.283Z,22.57
2017-07-12T14:00:12.794Z,22.51
2017-07-12T14:01:10.443Z,22.63
2017-07-12T14:02:10.307Z,22.55
2017-07-12T14:03:10.747Z,22.62
2017-07-12T14:04:12.053Z,22.68
2017-07-12T14:05:12.621Z,22.73
2017-07-12T14:06:11.128Z,22.85
2017-07-12T14:07:09.773Z,22.96
2017-07-12T14:08:10.231Z,23.02
2017-07-12T14:09:09.883Z,22.98
2017-07-12T14:10:13.064Z,23.15
2017-07-12T14:11:10.238Z,23.31
2017-07-12T14:12:09.865Z,23.43
2017-07-12T14:13:10.009Z,23.46
2017-07-12T14:14:09.886Z,23.43
2017-07-12T14:15:11.049Z,23.55
2017-07-12T14:16:09.925Z,23.76
2017-07-12T14:17:09.906Z,23.8
2017-07-12T14:18:10.308Z,23.8
2017-07-12T14:19:09.924Z,23.65
2017-07-12T14:20:11.974Z,23.66
2017-07-12T14:21:09.939Z,23.69
2017-07-12T14:22:09.952Z,23.71
2017-07-12T14:23:10.268Z,23.62
2017-07-12T14:24:09.936Z,23.62
2017-07-12T14:25:12.889Z,23.78
2017-07-12T14:26:09.618Z,23.76
2017-07-12T14:27:09.763Z,23.96
2017-07-12T14:28:10.153Z,23.95
2017-07-12T14:29:10.360Z,23.91
2017-07-12T14:30:11.129Z,23.78
2017-07-12T14:31:09.981Z,23.76
2017-07-12T14:32:10.327Z,23.76
2017-07-12T14:33:09.992Z,23.68
2017-07-12T14:34:15.100Z,23.68
2017-07-12T14:35:11.112Z,23.69
2017-07-12T14:36:10.424Z,23.78
2017-07-12T14:37:10.494Z,23.8
2017-07-12T14:38:09.706Z,23.96
2017-07-12T14:39:09.699Z,24.17
2017-07-12T14:40:11.899Z,24.21
2017-07-12T14:41:10.036Z,24.13
2017-07-12T14:42:09.710Z,24.03
2017-07-12T14:43:10.377Z,23.92
2017-07-12T14:44:10.389Z,23.87
2017-07-12T14:45:12.992Z,23.91
2017-07-12T14:46:09.724Z,23.83
2017-07-12T14:47:10.415Z,23.83
2017-07-12T14:48:10.355Z,23.8
2017-07-12T14:49:10.243Z,23.92
2017-07-12T14:50:15.418Z,23.86
2017-07-12T14:51:10.811Z,23.95
2017-07-12T14:52:10.103Z,24.03
2017-07-12T14:53:10.506Z,24.06
2017-07-12T14:54:10.493Z,24.11
2017-07-12T14:55:11.212Z,24.17
2017-07-12T14:56:09.795Z,24.29
2017-07-12T14:57:10.720Z,24.32
2017-07-12T14:58:10.660Z,24.3
2017-07-12T14:59:10.717Z,24.32
2017-07-12T15:00:13.250Z,24.47
2017-07-12T15:01:10.309Z,24.47
2017-07-12T15:02:10.738Z,24.42
2017-07-12T15:03:10.480Z,24.42
2017-07-12T15:04:09.818Z,24.51
2017-07-12T15:05:16.843Z,24.6
2017-07-12T15:06:10.695Z,24.63
2017-07-12T15:07:10.503Z,24.63
2017-07-12T15:08:10.500Z,24.68
2017-07-12T15:09:09.841Z,24.84
2017-07-12T15:11:10.514Z,24.8
2017-07-12T15:12:10.545Z,24.84
2017-07-12T15:13:10.541Z,24.81
2017-07-12T15:14:10.537Z,24.88
2017-07-12T15:15:11.678Z,24.95
2017-07-12T15:16:10.817Z,24.89
2017-07-12T15:17:10.556Z,24.81
2017-07-12T15:18:10.096Z,24.96
2017-07-12T15:19:10.283Z,25.13
2017-07-12T15:20:12.630Z,25.22
2017-07-12T15:21:15.033Z,25.44
2017-07-12T15:22:10.332Z,25.38
2017-07-12T15:23:10.807Z,25.38
2017-07-12T15:24:10.821Z,25.33
2017-07-12T15:25:12.153Z,25.29
2017-07-12T15:26:13.522Z,25.14
2017-07-12T15:27:14.706Z,25.06
2017-07-12T15:28:11.172Z,25.04
2017-07-12T15:29:10.925Z,24.86
2017-07-12T15:30:14.645Z,24.8
2017-07-12T15:31:14.538Z,24.84
2017-07-12T15:32:14.124Z,24.84
2017-07-12T22:59:18.416Z,18.31
2017-07-12T23:00:28.444Z,18.23
2017-07-12T23:01:16.970Z,18.23
2017-07-12T23:02:17.042Z,18.26
2017-07-12T23:03:17.211Z,18.19
2017-07-12T23:04:17.746Z,18.22
2017-07-12T23:05:29.304Z,18.22
2017-07-12T23:06:16.881Z,18.26
2017-07-12T23:07:17.213Z,18.2
2017-07-12T23:08:16.869Z,18.22
2017-07-12T23:09:17.198Z,18.26
2017-07-12T23:10:27.078Z,18.29
2017-07-12T23:11:16.911Z,18.26
2017-07-12T23:12:17.201Z,18.25
2017-07-12T23:13:17.197Z,18.23
2017-07-12T23:14:17.756Z,18.23
2017-07-12T23:15:26.700Z,18.2
2017-07-12T23:16:16.939Z,18.26
2017-07-12T23:17:16.877Z,18.25
2017-07-12T23:18:16.549Z,18.18
2017-07-12T23:19:17.223Z,18.18
2017-07-12T23:20:27.762Z,18.19
2017-07-12T23:21:17.216Z,18.07
2017-07-12T23:22:17.215Z,18.05
2017-07-12T23:23:17.212Z,18.01
2017-07-12T23:24:17.217Z,18.01
2017-07-12T23:25:30.480Z,18.03
2017-07-12T23:26:16.877Z,18.04
2017-07-12T23:27:16.884Z,17.92
2017-07-12T23:28:17.249Z,17.89
2017-07-12T23:29:16.883Z,17.83
2017-07-12T23:30:28.762Z,17.76
2017-07-12T23:31:17.262Z,17.76
2017-07-12T23:32:17.223Z,17.83
2017-07-12T23:33:16.898Z,17.78
2017-07-12T23:34:17.244Z,17.74
2017-07-12T23:35:27.990Z,17.76
2017-07-12T23:36:16.902Z,17.7
2017-07-12T23:37:16.565Z,17.65
2017-07-12T23:38:17.242Z,17.71
2017-07-12T23:39:16.904Z,17.64
2017-07-12T23:40:28.857Z,17.6
2017-07-12T23:41:16.945Z,17.67
2017-07-12T23:42:16.911Z,17.65
2017-07-12T23:43:16.907Z,17.6
2017-07-12T23:44:16.918Z,17.52
2017-07-12T23:45:28.002Z,17.48
2017-07-12T23:46:17.017Z,17.52
2017-07-12T23:47:16.932Z,17.51
2017-07-12T23:48:16.930Z,17.54
2017-07-12T23:49:17.262Z,17.46
2017-07-12T23:50:39.035Z,17.45
2017-07-12T23:51:16.970Z,17.38
2017-07-12T23:52:16.587Z,17.44
2017-07-12T23:53:17.257Z,17.38
2017-07-12T23:54:17.029Z,17.38
2017-07-12T23:56:16.721Z,17.39
2017-07-12T23:57:16.599Z,17.45
2017-07-12T23:58:17.274Z,17.41
2017-07-12T23:59:16.946Z,17.31
